Time;durP1;ratioP1;P1;durP2;ratioP2;P2;SDS_P1;SDS_P2;PMS_P1;PMS_P2;Temp;Humidity;BMP_temperature;BMP_pressure;BME280_temperature;BME280_humidity;BME280_pressure;Samples;Min_cycle;Max_cycle;Signal;HPM_P1;HPM_P2
2022/08/31 00:04:05;;;;;;;10.08;4.42;;;;;;;16.67;100.00;98495.44;1687127;84;28129;-88
2022/08/31 00:06:33;;;;;;;7.35;4.95;;;;;;;16.44;100.00;98495.39;1686401;83;28119;-89
2022/08/31 00:09:01;;;;;;;8.10;4.37;;;;;;;16.46;100.00;98500.53;1685770;84;28111;-89
2022/08/31 00:11:34;;;;;;;4.85;3.58;;;;;;;16.50;100.00;98501.42;1686700;83;28091;-89
2022/08/31 00:14:10;;;;;;;7.17;4.05;;;;;;;16.46;100.00;98511.11;1688613;84;28049;-88
2022/08/31 00:16:40;;;;;;;8.48;4.10;;;;;;;16.35;100.00;98513.91;1679485;84;28110;-89
2022/08/31 00:19:13;;;;;;;6.05;3.85;;;;;;;16.24;100.00;98509.13;1684220;83;28016;-89
2022/08/31 00:21:41;;;;;;;8.80;4.35;;;;;;;16.22;100.00;98509.73;1688247;84;28186;-89
2022/08/31 00:24:11;;;;;;;8.28;4.15;;;;;;;16.24;100.00;98506.97;1681265;84;28102;-89
2022/08/31 00:26:56;;;;;;;7.25;4.60;;;;;;;16.27;100.00;98500.91;1681243;83;28213;-90
2022/08/31 00:29:30;;;;;;;7.78;4.20;;;;;;;16.23;100.00;98502.17;1690264;83;28115;-89
2022/08/31 00:32:08;;;;;;;8.10;4.85;;;;;;;16.24;100.00;98503.84;1685642;84;28109;-90
2022/08/31 00:34:39;;;;;;;7.70;5.28;;;;;;;16.27;100.00;98501.39;1686584;84;28012;-90
2022/08/31 00:37:12;;;;;;;6.77;3.60;;;;;;;16.21;100.00;98509.88;1694395;83;36696;-89
2022/08/31 00:39:48;;;;;;;8.20;4.92;;;;;;;16.14;100.00;98504.83;1670280;84;36335;-90
2022/08/31 00:42:22;;;;;;;7.15;4.72;;;;;;;16.14;100.00;98499.06;1691706;83;28220;-90
2022/08/31 00:44:52;;;;;;;7.40;4.87;;;;;;;16.19;100.00;98507.39;1689709;84;28094;-90
2022/08/31 00:47:19;;;;;;;9.33;4.65;;;;;;;16.10;100.00;98513.49;1689526;84;28025;-90
2022/08/31 00:49:50;;;;;;;9.00;4.60;;;;;;;16.05;100.00;98509.13;1684360;83;28148;-90
2022/08/31 00:52:40;;;;;;;10.53;5.45;;;;;;;16.06;100.00;98506.83;1685820;83;28009;-90
2022/08/31 00:55:13;;;;;;;8.20;5.50;;;;;;;16.12;100.00;98507.59;1686687;83;28127;-89
2022/08/31 00:57:44;;;;;;;10.13;5.90;;;;;;;16.22;100.00;98508.42;1703081;81;28122;-90
2022/08/31 01:00:35;;;;;;;;;;;;;;;16.26;100.00;98503.20;1730594;82;28180;-90
2022/08/31 01:03:06;;;;;;;7.85;4.70;;;;;;;16.29;100.00;98504.25;1718280;82;24797;-90
2022/08/31 01:05:34;;;;;;;9.75;4.87;;;;;;;16.31;100.00;98504.92;1716088;82;28167;-90
2022/08/31 01:08:09;;;;;;;8.70;5.47;;;;;;;16.31;100.00;98500.96;1709591;82;28084;-90
2022/08/31 01:10:42;;;;;;;7.72;5.03;;;;;;;16.30;100.00;98504.60;1721478;82;28125;-88
2022/08/31 01:13:16;;;;;;;10.05;5.17;;;;;;;16.18;100.00;98506.20;1714453;82;28134;-88
2022/08/31 01:15:47;;;;;;;9.05;5.10;;;;;;;16.13;100.00;98503.16;1713351;82;28089;-88
2022/08/31 01:18:17;;;;;;;7.10;4.80;;;;;;;16.01;100.00;98502.95;1719174;82;28077;-87
2022/08/31 01:21:01;;;;;;;8.10;4.62;;;;;;;15.84;100.00;98492.59;1711754;82;28066;-87
2022/08/31 01:23:37;;;;;;;7.25;4.95;;;;;;;15.87;100.00;98495.78;1713376;82;27993;-88
2022/08/31 01:26:06;;;;;;;7.03;4.85;;;;;;;15.89;100.00;98492.52;1710132;82;28084;-88
2022/08/31 01:28:33;;;;;;;9.40;5.22;;;;;;;15.90;100.00;98493.36;1711465;82;28107;-88
2022/08/31 01:31:08;;;;;;;7.40;5.55;;;;;;;15.98;100.00;98489.55;1715518;82;28012;-88
2022/08/31 01:33:41;;;;;;;11.48;5.42;;;;;;;16.05;100.00;98492.44;1715103;82;28162;-87
2022/08/31 01:36:08;;;;;;;9.23;5.50;;;;;;;15.91;100.00;98487.12;1715520;82;28145;-87
2022/08/31 01:38:39;;;;;;;6.62;4.83;;;;;;;15.76;100.00;98486.70;1709402;82;28000;-88
2022/08/31 01:41:12;;;;;;;7.50;5.08;;;;;;;15.63;100.00;98485.30;1719590;82;28108;-87
2022/08/31 01:43:39;;;;;;;7.03;5.22;;;;;;;15.54;100.00;98485.64;1724229;82;28113;-89
2022/08/31 01:46:08;;;;;;;7.08;5.37;;;;;;;15.49;100.00;98484.67;1720966;82;28107;-88
2022/08/31 01:48:49;;;;;;;6.47;5.17;;;;;;;15.54;100.00;98482.17;1711177;82;28078;-88
2022/08/31 01:51:26;;;;;;;6.25;5.22;;;;;;;15.52;100.00;98485.42;1717301;82;28077;-88
2022/08/31 01:54:04;;;;;;;8.08;5.33;;;;;;;15.50;100.00;98488.98;1715260;82;28063;-89
2022/08/31 01:56:34;;;;;;;8.35;5.40;;;;;;;15.46;100.00;98482.81;1706882;82;28070;-88
2022/08/31 01:59:09;;;;;;;8.63;6.17;;;;;;;15.43;100.00;98482.61;1718045;82;28070;-88
2022/08/31 02:01:43;;;;;;;9.15;6.28;;;;;;;15.33;100.00;98484.37;1715185;82;28107;-89
2022/08/31 02:04:12;;;;;;;7.97;5.08;;;;;;;15.24;100.00;98487.83;1721794;82;28160;-89
2022/08/31 02:06:41;;;;;;;7.47;4.85;;;;;;;15.16;100.00;98482.41;1714060;82;28021;-88
2022/08/31 02:09:08;;;;;;;10.65;6.20;;;;;;;15.14;100.00;98486.13;1711062;82;28079;-88
2022/08/31 02:11:35;;;;;;;12.53;6.45;;;;;;;15.08;100.00;98483.55;1711164;82;28111;-89
2022/08/31 02:14:02;;;;;;;10.20;7.15;;;;;;;15.07;100.00;98483.20;1709988;82;28124;-88
2022/08/31 02:16:36;;;;;;;10.25;6.90;;;;;;;15.06;100.00;98489.42;1717912;82;28009;-87
2022/08/31 02:19:04;;;;;;;9.80;5.30;;;;;;;15.02;100.00;98485.40;1719692;82;28071;-88
2022/08/31 02:21:32;;;;;;;8.03;5.12;;;;;;;15.04;100.00;98484.80;1712700;82;28140;-88
2022/08/31 02:24:00;;;;;;;8.15;5.83;;;;;;;15.03;100.00;98489.71;1714949;82;27986;-89
2022/08/31 02:26:27;;;;;;;10.10;5.97;;;;;;;15.01;100.00;98483.72;1715733;82;28096;-89
2022/08/31 02:28:53;;;;;;;7.08;5.12;;;;;;;15.00;100.00;98488.16;1713187;82;28100;-88
2022/08/31 02:31:20;;;;;;;7.67;5.00;;;;;;;15.00;100.00;98489.48;1719212;82;28180;-89
2022/08/31 02:33:48;;;;;;;7.65;5.40;;;;;;;14.99;100.00;98483.87;1711523;82;28085;-88
2022/08/31 02:36:23;;;;;;;7.30;5.72;;;;;;;15.01;100.00;98486.36;1716714;82;28063;-89
2022/08/31 02:38:56;;;;;;;8.03;5.70;;;;;;;15.08;100.00;98487.50;1715593;82;28163;-88
2022/08/31 02:41:26;;;;;;;10.15;5.90;;;;;;;15.05;100.00;98483.83;1708811;82;28169;-89
2022/08/31 02:43:52;;;;;;;8.00;5.47;;;;;;;15.04;100.00;98489.59;1714684;82;28126;-88
2022/08/31 02:46:19;;;;;;;9.03;5.95;;;;;;;15.03;100.00;98484.44;1713020;82;28080;-88
2022/08/31 02:48:45;;;;;;;9.88;5.58;;;;;;;15.00;100.00;98482.08;1713006;82;28088;-88
2022/08/31 02:51:22;;;;;;;8.33;6.20;;;;;;;14.97;100.00;98478.38;1717546;82;28073;-88
2022/08/31 02:53:49;;;;;;;9.03;6.30;;;;;;;14.91;100.00;98480.22;1715573;82;28179;-88
2022/08/31 02:56:15;;;;;;;10.68;6.33;;;;;;;14.88;100.00;98476.07;1712869;82;28055;-88
2022/08/31 02:58:53;;;;;;;8.80;6.03;;;;;;;14.90;100.00;98483.82;1716416;81;28135;-88
2022/08/31 03:01:15;;;;;;;8.55;6.10;;;;;;;14.88;100.00;98478.70;1722125;81;28081;-88
2022/08/31 03:03:42;;;;;;;8.53;5.50;;;;;;;14.87;100.00;98481.47;1720948;81;28088;-88
2022/08/31 03:06:12;;;;;;;10.38;6.15;;;;;;;14.87;100.00;98476.20;1719659;81;28161;-88
2022/08/31 03:08:42;;;;;;;10.35;4.83;;;;;;;14.87;100.00;98476.20;1716116;82;28061;-89
2022/08/31 03:11:10;;;;;;;9.65;5.25;;;;;;;14.84;100.00;98475.13;1722416;82;28076;-89
2022/08/31 03:13:39;;;;;;;10.40;5.30;;;;;;;14.85;100.00;98468.41;1715728;82;28150;-89
2022/08/31 03:16:06;;;;;;;6.95;4.80;;;;;;;14.85;100.00;98474.16;1720444;81;28105;-88
2022/08/31 03:18:38;;;;;;;6.30;4.95;;;;;;;14.97;100.00;98468.67;1724981;81;28075;-88
2022/08/31 03:21:08;;;;;;;7.30;5.40;;;;;;;15.08;100.00;98474.33;1710522;82;28434;-88
2022/08/31 03:23:35;;;;;;;11.00;5.87;;;;;;;15.14;100.00;98476.91;1708422;82;28087;-89
2022/08/31 03:26:04;;;;;;;8.98;5.92;;;;;;;15.00;100.00;98472.34;1712829;82;28099;-88
2022/08/31 03:28:42;;;;;;;9.68;6.20;;;;;;;14.90;100.00;98474.12;1711581;82;28208;-89
2022/08/31 03:31:16;;;;;;;8.98;6.58;;;;;;;14.83;100.00;98474.80;1715385;82;28145;-89
2022/08/31 03:33:44;;;;;;;10.15;6.72;;;;;;;14.78;100.00;98473.05;1706670;82;28081;-89
2022/08/31 03:36:18;;;;;;;9.83;6.03;;;;;;;14.75;100.00;98475.93;1715539;82;28100;-88
2022/08/31 03:38:43;;;;;;;5.50;3.95;;;;;;;14.73;100.00;98473.93;1709792;82;28136;-89
2022/08/31 03:41:29;;;;;;;10.55;6.40;;;;;;;14.73;100.00;98480.00;1714200;82;28080;-89
2022/08/31 03:44:05;;;;;;;11.15;6.85;;;;;;;14.73;100.00;98484.47;1718439;82;28047;-89
2022/08/31 03:46:38;;;;;;;12.88;6.75;;;;;;;14.65;100.00;98489.91;1709241;82;28135;-88
2022/08/31 03:49:05;;;;;;;9.85;5.30;;;;;;;14.61;100.00;98487.66;1720229;82;28131;-88
2022/08/31 03:51:31;;;;;;;8.90;5.22;;;;;;;14.52;100.00;98485.80;1709826;82;28078;-88
2022/08/31 03:53:57;;;;;;;9.58;5.87;;;;;;;14.47;100.00;98484.87;1711497;82;28001;-88
2022/08/31 03:56:23;;;;;;;9.40;5.25;;;;;;;14.46;100.00;98479.25;1713262;82;28073;-88
2022/08/31 03:59:01;;;;;;;7.70;5.53;;;;;;;14.47;100.00;98480.09;1714520;82;28182;-88
2022/08/31 04:01:25;;;;;;;7.05;5.17;;;;;;;14.48;100.00;98480.45;1716987;82;28060;-89
2022/08/31 04:03:52;;;;;;;11.00;5.25;;;;;;;14.67;100.00;98487.62;1720758;82;28092;-88
2022/08/31 04:06:21;;;;;;;10.63;5.78;;;;;;;14.79;100.00;98485.23;1722228;82;27991;-88
2022/08/31 04:08:48;;;;;;;8.60;5.72;;;;;;;14.91;100.00;98485.02;1720703;82;28084;-89
2022/08/31 04:11:23;;;;;;;8.23;5.75;;;;;;;14.96;100.00;98480.17;1716165;82;28078;-89
2022/08/31 04:13:50;;;;;;;10.10;5.45;;;;;;;14.99;100.00;98480.41;1725128;82;28147;-88
2022/08/31 04:16:22;;;;;;;9.93;6.08;;;;;;;15.01;100.00;98482.41;1718191;82;28120;-88
2022/08/31 04:18:57;;;;;;;8.63;5.58;;;;;;;15.03;100.00;98485.27;1720427;82;28072;-89
2022/08/31 04:21:31;;;;;;;7.50;5.08;;;;;;;15.04;100.00;98484.80;1714004;82;28069;-88
2022/08/31 04:23:59;;;;;;;9.28;5.53;;;;;;;15.03;100.00;98486.59;1718529;82;28142;-89
2022/08/31 04:26:33;;;;;;;7.00;5.37;;;;;;;15.05;100.00;98487.78;1724118;82;28065;-88
2022/08/31 04:29:07;;;;;;;8.60;6.05;;;;;;;15.11;100.00;98495.12;1719687;82;28139;-89
2022/08/31 04:31:35;;;;;;;7.62;5.75;;;;;;;15.26;100.00;98512.75;1720831;82;28157;-88
2022/08/31 04:34:07;;;;;;;7.72;6.08;;;;;;;15.31;100.00;98506.10;1719994;82;28115;-89
2022/08/31 04:36:38;;;;;;;7.70;5.97;;;;;;;15.31;100.00;98511.38;1723617;82;28159;-89
2022/08/31 04:39:06;;;;;;;9.00;6.12;;;;;;;15.34;100.00;98513.73;1720778;82;28112;-88
2022/08/31 04:41:46;;;;;;;8.95;6.80;;;;;;;15.38;100.00;98511.68;1728015;82;28120;-88
2022/08/31 04:44:16;;;;;;;9.40;6.67;;;;;;;15.40;100.00;98514.52;1724934;82;28056;-88
2022/08/31 04:46:51;;;;;;;8.25;6.25;;;;;;;15.42;100.00;98513.91;1721868;82;28090;-88
2022/08/31 04:49:20;;;;;;;8.95;6.28;;;;;;;15.45;100.00;98507.03;1714672;82;28084;-89
2022/08/31 04:52:00;;;;;;;12.45;7.05;;;;;;;15.48;100.00;98519.12;1715689;82;28155;-88
2022/08/31 04:54:28;;;;;;;10.50;6.83;;;;;;;15.47;100.00;98519.61;1714995;82;28004;-88
2022/08/31 04:56:54;;;;;;;8.60;6.20;;;;;;;15.47;100.00;98520.92;1715924;82;28053;-89
2022/08/31 04:59:26;;;;;;;9.88;6.00;;;;;;;15.49;100.00;98524.24;1712928;82;28171;-89
2022/08/31 05:01:53;;;;;;;10.03;6.47;;;;;;;15.65;100.00;98520.30;1716313;82;28056;-89
2022/08/31 05:04:24;;;;;;;11.57;6.95;;;;;;;15.65;100.00;98520.30;1726093;82;28054;-89
2022/08/31 05:06:57;;;;;;;;;;;;;;;15.72;100.00;98526.67;1730976;82;28081;-88
2022/08/31 05:09:33;;;;;;;13.98;8.30;;;;;;;15.79;100.00;98533.08;1720694;82;25272;-90
2022/08/31 05:12:03;;;;;;;10.90;7.60;;;;;;;15.82;100.00;98533.62;1720660;82;28201;-89
2022/08/31 05:14:30;;;;;;;14.90;8.28;;;;;;;15.87;100.00;98536.69;1723668;82;28177;-89
2022/08/31 05:17:05;;;;;;;13.48;7.45;;;;;;;15.91;100.00;98539.91;1715739;82;28122;-89
2022/08/31 05:19:31;;;;;;;12.40;8.50;;;;;;;15.95;100.00;98545.25;1717333;82;28064;-88
2022/08/31 05:22:25;;;;;;;11.83;7.72;;;;;;;15.96;100.00;98550.88;1718641;82;28120;-89
2022/08/31 05:24:53;;;;;;;13.62;8.18;;;;;;;16.02;100.00;98553.45;1719034;82;28085;-89
2022/08/31 05:27:21;;;;;;;12.65;7.55;;;;;;;16.03;100.00;98559.92;1721579;82;28091;-89
2022/08/31 05:29:48;;;;;;;11.90;8.28;;;;;;;16.09;100.00;98559.34;1718259;82;28040;-89
2022/08/31 05:32:31;;;;;;;13.78;8.28;;;;;;;16.14;100.00;98559.80;1706919;82;28076;-89
2022/08/31 05:34:57;;;;;;;11.40;7.50;;;;;;;16.20;100.00;98555.25;1719416;82;28112;-89
2022/08/31 05:37:24;;;;;;;11.22;7.40;;;;;;;16.27;100.00;98556.36;1649006;86;28074;-89
2022/08/31 05:39:50;;;;;;;12.23;7.58;;;;;;;16.35;100.00;98549.08;1708392;82;28111;-89
2022/08/31 05:42:25;;;;;;;12.45;8.10;;;;;;;16.44;100.00;98554.83;1711672;82;28103;-89
2022/08/31 05:44:51;;;;;;;12.15;7.70;;;;;;;16.47;100.00;98553.23;1710039;82;28100;-89
2022/08/31 05:47:23;;;;;;;11.38;8.10;;;;;;;16.57;100.00;98556.70;1711660;82;27990;-89
2022/08/31 05:49:53;;;;;;;14.40;7.97;;;;;;;16.62;100.00;98553.17;1715019;82;28143;-89
2022/08/31 05:52:23;;;;;;;11.80;8.25;;;;;;;16.73;100.00;98560.10;1711837;82;28109;-89
2022/08/31 05:54:50;;;;;;;11.90;7.95;;;;;;;16.85;100.00;98558.97;1712684;82;28175;-88
2022/08/31 05:57:16;;;;;;;9.83;7.08;;;;;;;16.93;100.00;98555.09;1711369;82;28103;-88
2022/08/31 05:59:43;;;;;;;11.65;8.58;;;;;;;16.91;100.00;98554.40;1718467;82;28075;-89
2022/08/31 06:02:19;;;;;;;10.38;7.10;;;;;;;17.04;100.00;98559.38;1719879;82;28080;-89
2022/08/31 06:04:47;;;;;;;12.35;8.33;;;;;;;17.16;100.00;98560.87;1719820;82;28054;-89
2022/08/31 06:07:14;;;;;;;9.43;6.70;;;;;;;17.21;100.00;98557.78;1722256;82;28076;-89
2022/08/31 06:09:40;;;;;;;9.20;6.37;;;;;;;17.27;100.00;98562.00;1720277;82;28148;-88
2022/08/31 06:12:16;;;;;;;8.43;6.37;;;;;;;17.29;100.00;98567.97;1717563;82;28025;-89
2022/08/31 06:14:44;;;;;;;8.05;6.45;;;;;;;17.36;100.00;98565.09;1717060;82;28088;-89
2022/08/31 06:17:12;;;;;;;9.50;6.72;;;;;;;17.55;100.00;98565.00;1715847;82;28104;-89
2022/08/31 06:19:46;;;;;;;8.70;6.90;;;;;;;17.62;100.00;98569.74;1722249;82;28099;-89
2022/08/31 06:22:18;;;;;;;9.05;6.10;;;;;;;17.52;100.00;98567.09;1719094;81;28124;-88
2022/08/31 06:24:47;;;;;;;8.75;6.17;;;;;;;17.38;100.00;98570.24;1720499;82;28076;-89
2022/08/31 06:27:17;;;;;;;7.37;5.53;;;;;;;17.35;100.00;98562.09;1730005;82;28084;-88
2022/08/31 06:29:45;;;;;;;8.13;5.53;;;;;;;17.37;100.00;98568.56;1715087;82;28072;-89
2022/08/31 06:32:14;;;;;;;8.08;5.35;;;;;;;17.33;100.00;98566.72;1726373;82;28104;-88
2022/08/31 06:34:45;;;;;;;8.08;5.58;;;;;;;17.33;100.00;98569.36;1693968;83;28089;-90
2022/08/31 06:37:25;;;;;;;6.78;4.55;;;;;;;17.33;100.00;98575.97;1721994;82;28052;-90
2022/08/31 06:39:52;;;;;;;6.72;4.70;;;;;;;17.32;100.00;98576.95;1719088;82;28013;-88
2022/08/31 06:42:31;;;;;;;7.35;4.22;;;;;;;17.34;100.00;98578.14;1718832;82;28023;-88
2022/08/31 06:44:57;;;;;;;5.80;4.30;;;;;;;17.45;100.00;98589.85;1718242;82;28263;-89
2022/08/31 06:47:30;;;;;;;6.60;4.22;;;;;;;17.44;100.00;98586.86;1718843;82;28059;-89
2022/08/31 06:49:56;;;;;;;5.83;3.80;;;;;;;17.42;100.00;98588.80;1720433;82;28080;-88
2022/08/31 06:52:23;;;;;;;3.70;3.33;;;;;;;17.37;100.00;98587.92;1720140;82;28095;-88
2022/08/31 06:55:09;;;;;;;6.62;3.17;;;;;;;17.34;100.00;98593.52;1719575;82;28139;-88
2022/08/31 06:57:42;;;;;;;6.83;3.77;;;;;;;17.36;100.00;98584.93;1721274;82;28093;-89
2022/08/31 07:00:16;;;;;;;4.40;2.92;;;;;;;17.38;100.00;98587.44;1715768;82;28061;-88
2022/08/31 07:02:43;;;;;;;5.58;2.92;;;;;;;17.38;100.00;98594.05;1719761;82;28058;-88
2022/08/31 07:05:13;;;;;;;4.62;3.08;;;;;;;17.33;100.00;98593.66;1715118;82;28087;-88
2022/08/31 07:07:48;;;;;;;4.35;3.02;;;;;;;17.32;100.00;98594.14;1715935;82;28037;-88
2022/08/31 07:10:16;;;;;;;3.10;2.70;;;;;;;17.34;100.00;98599.30;1716444;82;28006;-88
2022/08/31 07:12:55;;;;;;;6.08;3.15;;;;;;;17.37;100.00;98599.00;1719152;82;28122;-88
2022/08/31 07:15:21;;;;;;;4.25;2.70;;;;;;;17.40;100.00;98603.49;1715416;82;28054;-89
2022/08/31 07:17:50;;;;;;;5.60;2.80;;;;;;;17.43;100.00;98594.45;1718380;82;28058;-88
2022/08/31 07:20:27;;;;;;;3.58;2.62;;;;;;;17.49;100.00;98597.34;1716151;82;28077;-89
2022/08/31 07:22:53;;;;;;;4.53;2.75;;;;;;;17.53;100.00;98593.91;1715362;82;28107;-88
2022/08/31 07:25:28;;;;;;;3.90;2.50;;;;;;;17.57;100.00;98591.30;1718194;82;28004;-88
2022/08/31 07:28:01;;;;;;;7.12;2.72;;;;;;;17.63;100.00;98594.72;1715267;82;28145;-89
2022/08/31 07:30:28;;;;;;;3.45;2.50;;;;;;;17.65;100.00;98599.39;1711299;82;28076;-89
2022/08/31 07:32:54;;;;;;;3.10;2.10;;;;;;;17.69;100.00;98599.42;1715453;82;28085;-88
2022/08/31 07:35:20;;;;;;;4.47;2.52;;;;;;;17.76;100.00;98595.70;1723491;82;28098;-88
2022/08/31 07:43:22;;;;;;;4.53;2.12;;;;;;;17.91;100.00;98610.09;1713756;82;28174;-88
2022/08/31 07:45:48;;;;;;;4.67;2.58;;;;;;;17.94;100.00;98609.81;1723270;82;28160;-88
2022/08/31 07:48:20;;;;;;;3.10;2.17;;;;;;;17.94;100.00;98613.30;1721644;82;28533;-89
2022/08/31 07:50:53;;;;;;;3.10;2.27;;;;;;;17.96;100.00;98615.28;1719859;82;28107;-88
2022/08/31 07:53:28;;;;;;;3.83;2.17;;;;;;;17.99;100.00;98612.84;1713189;82;28075;-88
2022/08/31 07:55:55;;;;;;;4.30;2.80;;;;;;;18.05;100.00;98612.74;1717776;82;28115;-88
2022/08/31 07:58:22;;;;;;;3.58;2.30;;;;;;;18.10;100.00;98610.47;1714442;82;28076;-88
2022/08/31 08:00:51;;;;;;;3.83;2.10;;;;;;;18.17;100.00;98609.70;1697679;82;28073;-88
2022/08/31 08:03:19;;;;;;;3.45;1.95;;;;;;;18.28;100.00;98612.63;1699456;83;28110;-88
2022/08/31 08:05:48;;;;;;;5.55;2.20;;;;;;;18.39;100.00;98608.42;1699779;83;28489;-87
2022/08/31 08:08:21;;;;;;;3.40;1.52;;;;;;;18.43;100.00;98611.13;1697289;83;28080;-88
2022/08/31 08:10:47;;;;;;;;;;;;;;;18.46;100.00;98608.16;1647065;86;28036;-87
2022/08/31 08:13:17;;;;;;;2.08;1.42;;;;;;;18.51;100.00;98608.53;1664633;84;22704;-87
2022/08/31 08:15:44;;;;;;;2.53;1.10;;;;;;;18.53;100.00;98607.90;1694938;83;28190;-88
2022/08/31 08:18:12;;;;;;;2.55;1.10;;;;;;;18.57;100.00;98614.59;1699675;82;40525;-87
2022/08/31 08:20:47;;;;;;;2.45;1.30;;;;;;;18.63;100.00;98610.00;1694379;83;28160;-87
2022/08/31 08:23:16;;;;;;;2.33;1.10;;;;;;;18.71;100.00;98617.20;1692928;84;28112;-87
2022/08/31 08:25:46;;;;;;;4.03;1.30;;;;;;;18.75;100.00;98614.57;1674307;84;28073;-87
2022/08/31 08:28:16;;;;;;;1.70;1.12;;;;;;;18.82;100.00;98610.29;1688820;84;28107;-88
2022/08/31 08:30:49;;;;;;;2.60;0.85;;;;;;;18.88;100.00;98604.38;1689690;84;28088;-88
2022/08/31 08:33:24;;;;;;;2.17;1.12;;;;;;;18.97;100.00;98609.25;1694234;84;28061;-87
2022/08/31 08:35:55;;;;;;;1.70;1.05;;;;;;;19.07;100.00;98605.51;1694772;82;28077;-88
2022/08/31 08:38:29;;;;;;;3.27;1.37;;;;;;;19.17;100.00;98602.25;1690544;84;28097;-87
2022/08/31 08:41:18;;;;;;;2.02;1.30;;;;;;;19.27;100.00;98602.13;1700287;83;28085;-87
2022/08/31 08:43:50;;;;;;;1.25;1.05;;;;;;;19.31;100.00;98606.65;1699750;83;28069;-88
2022/08/31 08:46:32;;;;;;;1.32;1.00;;;;;;;19.32;100.00;98599.00;1699567;83;28096;-88
2022/08/31 08:49:15;;;;;;;2.20;1.12;;;;;;;19.35;100.00;98604.01;1696569;83;28026;-87
2022/08/31 08:52:02;;;;;;;1.02;0.90;;;;;;;19.37;100.00;98594.05;1699482;83;28054;-88
2022/08/31 08:54:31;;;;;;;1.75;0.90;;;;;;;19.34;100.00;98600.52;1699465;83;28096;-87
2022/08/31 08:57:03;;;;;;;2.90;0.75;;;;;;;19.34;100.00;98597.87;1672955;83;28187;-87
2022/08/31 08:59:29;;;;;;;1.45;0.75;;;;;;;19.37;100.00;98603.34;1704684;82;28017;-87
2022/08/31 09:02:03;;;;;;;1.05;0.90;;;;;;;19.35;100.00;98600.86;1724005;82;28132;-87
2022/08/31 09:04:51;;;;;;;1.12;1.00;;;;;;;19.38;100.00;98599.20;1706729;82;28006;-88
2022/08/31 09:07:33;;;;;;;2.40;0.97;;;;;;;19.48;100.00;98599.11;1717039;82;28007;-87
2022/08/31 09:10:40;;;;;;;1.80;1.00;;;;;;;19.58;100.00;98594.53;1721140;82;28045;-88
2022/08/31 09:13:42;;;;;;;1.60;0.90;;;;;;;19.57;100.00;98595.03;1721649;82;27974;-88
2022/08/31 09:16:24;;;;;;;2.52;1.12;;;;;;;19.54;100.00;98594.00;1720438;82;28017;-88
2022/08/31 09:18:57;;;;;;;0.82;0.82;;;;;;;19.58;100.00;98595.33;1722109;82;28162;-88
2022/08/31 09:21:33;;;;;;;2.60;0.88;;;;;;;19.60;100.00;98593.36;1720690;82;28081;-87
2022/08/31 09:24:08;;;;;;;1.70;1.10;;;;;;;19.57;100.00;98591.05;1720680;82;28033;-88
2022/08/31 09:26:53;;;;;;;2.02;1.05;;;;;;;19.57;100.00;98593.70;1720890;82;28057;-87
2022/08/31 09:29:25;;;;;;;1.65;0.90;;;;;;;19.62;100.00;98595.38;1719742;82;28090;-88
2022/08/31 09:32:02;;;;;;;2.12;1.00;;;;;;;19.60;100.00;98588.55;1723778;82;28098;-87
2022/08/31 09:34:31;;;;;;;2.02;0.95;;;;;;;19.62;100.00;98593.22;1718739;82;28048;-88
2022/08/31 09:37:15;;;;;;;1.47;1.07;;;;;;;19.57;100.00;98597.68;1719228;82;28115;-88
2022/08/31 09:39:52;;;;;;;0.98;0.75;;;;;;;19.58;100.00;98596.66;1721485;82;28121;-87
2022/08/31 09:42:26;;;;;;;2.15;1.27;;;;;;;19.64;100.00;98590.72;1727675;82;28121;-87
2022/08/31 09:44:52;;;;;;;2.17;1.10;;;;;;;19.72;100.00;98583.78;1725544;82;28162;-87
2022/08/31 09:47:51;;;;;;;1.85;1.30;;;;;;;19.81;100.00;98582.80;1722314;82;28100;-87
2022/08/31 09:50:29;;;;;;;2.12;1.05;;;;;;;19.83;100.00;98582.98;1720704;82;28071;-88
2022/08/31 09:56:12;;;;;;;2.75;1.20;;;;;;;19.98;100.00;98581.86;1721893;82;28127;-87
2022/08/31 09:58:37;;;;;;;1.00;0.90;;;;;;;20.13;100.00;98580.22;1717754;82;28073;-88
2022/08/31 10:01:12;;;;;;;1.37;0.90;;;;;;;20.17;100.00;98578.08;1720885;82;28094;-88
2022/08/31 10:03:44;;;;;;;1.67;0.75;;;;;;;20.24;100.00;98585.71;1722597;81;28116;-87
2022/08/31 10:06:36;;;;;;;1.72;1.27;;;;;;;20.27;100.00;98583.58;1722181;82;28164;-88
2022/08/31 10:09:07;;;;;;;1.45;1.00;;;;;;;20.37;100.00;98581.62;1643164;85;28121;-88
2022/08/31 10:11:43;;;;;;;1.55;1.00;;;;;;;20.47;100.00;98578.79;1699369;82;28099;-87
2022/08/31 10:14:34;;;;;;;2.87;1.15;;;;;;;20.55;100.00;98580.63;1707840;82;28131;-88
2022/08/31 10:17:09;;;;;;;1.90;0.70;;;;;;;20.60;100.00;98572.48;1709311;82;28155;-88
2022/08/31 10:20:04;;;;;;;1.67;0.90;;;;;;;20.69;100.00;98575.46;1706866;82;28050;-87
2022/08/31 10:22:35;;;;;;;2.47;0.88;;;;;;;20.79;100.00;98568.63;1715299;82;28279;-87
2022/08/31 10:25:11;;;;;;;1.67;0.75;;;;;;;20.79;100.00;98572.12;1711069;82;28164;-87
2022/08/31 10:27:49;;;;;;;1.15;0.80;;;;;;;20.71;100.00;98564.66;1705471;82;28192;-87
2022/08/31 10:30:28;;;;;;;1.20;0.90;;;;;;;20.62;100.00;98565.68;1708744;82;28014;-87
2022/08/31 10:33:05;;;;;;;2.02;0.90;;;;;;;20.63;100.00;98563.33;1716597;82;28081;-88
2022/08/31 10:35:57;;;;;;;3.47;0.70;;;;;;;20.60;100.00;98561.84;1713715;82;28101;-88
2022/08/31 10:38:39;;;;;;;1.50;0.90;;;;;;;20.62;100.00;98560.36;1706637;82;28074;-87
2022/08/31 10:41:15;;;;;;;0.80;0.70;;;;;;;20.63;100.00;98560.67;1687014;84;28047;-87
2022/08/31 10:44:00;;;;;;;1.65;0.80;;;;;;;20.67;100.00;98564.18;1664895;85;28115;-87
2022/08/31 10:46:29;;;;;;;2.75;0.82;;;;;;;20.69;100.00;98563.98;1669945;85;28133;-87
2022/08/31 10:48:57;;;;;;;2.67;1.20;;;;;;;20.71;100.00;98558.02;1664479;85;28040;-87
2022/08/31 10:51:27;;;;;;;1.45;0.80;;;;;;;20.69;100.00;98561.33;1667450;84;28175;-87
2022/08/31 10:54:39;;;;;;;2.02;1.00;;;;;;;20.70;100.00;98558.52;1671649;84;28067;-88
2022/08/31 10:57:30;;;;;;;2.50;0.80;;;;;;;20.78;100.00;98558.48;1708624;82;28086;-87
2022/08/31 11:03:09;;;;;;;1.02;0.82;;;;;;;20.69;100.00;98549.36;1689313;84;24835;-87
2022/08/31 11:05:49;;;;;;;1.07;0.88;;;;;;;20.69;100.00;98546.20;1686130;83;28009;-87
2022/08/31 11:08:22;;;;;;;0.75;0.75;;;;;;;20.74;100.00;98548.36;1678898;84;28100;-87
2022/08/31 11:10:52;;;;;;;1.12;0.90;;;;;;;20.78;100.00;98548.38;1685230;84;28100;-87
2022/08/31 11:13:37;;;;;;;1.70;0.80;;;;;;;20.97;100.00;98549.81;1693297;83;28031;-87
2022/08/31 11:16:22;;;;;;;1.35;1.00;;;;;;;20.97;100.00;98555.14;1689782;84;28105;-87
2022/08/31 11:18:57;;;;;;;2.50;1.20;;;;;;;20.96;100.00;98546.32;1695750;83;28119;-88
2022/08/31 11:21:44;;;;;;;1.45;0.98;;;;;;;21.10;100.00;98535.48;1692707;83;28065;-88
2022/08/31 11:24:27;;;;;;;0.98;0.90;;;;;;;21.15;100.00;98536.67;1702134;83;28129;-88
2022/08/31 11:26:56;;;;;;;1.67;0.88;;;;;;;21.09;100.00;98539.14;1694074;83;28091;-88
2022/08/31 11:29:46;;;;;;;2.33;1.10;;;;;;;20.98;100.00;98537.69;1694533;83;28197;-88
2022/08/31 11:32:19;;;;;;;2.58;1.05;;;;;;;20.90;100.00;98536.36;1699721;83;28128;-88
2022/08/31 11:34:50;;;;;;;1.65;1.12;;;;;;;20.83;100.00;98537.56;1696459;83;28084;-88
2022/08/31 11:37:45;;;;;;;1.75;0.90;;;;;;;20.76;100.00;98539.72;1697637;83;28176;-88
2022/08/31 11:40:43;;;;;;;1.90;0.75;;;;;;;20.77;100.00;98542.72;1697115;82;28244;-88
2022/08/31 11:43:04;;;;;;;1.87;1.07;;;;;;;20.68;100.00;98536.56;1694114;83;28095;-88
2022/08/31 11:45:36;;;;;;;1.90;0.80;;;;;;;20.58;100.00;98535.91;1698878;83;28415;-88
2022/08/31 11:48:00;;;;;;;0.95;0.65;;;;;;;20.58;100.00;98529.76;1696728;84;28102;-88
2022/08/31 11:50:57;;;;;;;1.70;0.90;;;;;;;20.60;100.00;98530.44;1698400;83;28006;-88
2022/08/31 11:53:43;;;;;;;0.90;0.80;;;;;;;20.58;100.00;98529.76;1691323;84;28097;-88
2022/08/31 11:56:08;;;;;;;2.35;0.70;;;;;;;20.54;100.00;98537.25;1685945;83;28136;-89
2022/08/31 11:58:40;;;;;;;2.27;1.10;;;;;;;20.50;100.00;98530.62;1695169;84;28085;-88
2022/08/31 12:01:17;;;;;;;2.08;0.93;;;;;;;20.53;100.00;98530.77;1695063;82;28152;-89
2022/08/31 12:03:51;;;;;;;1.25;0.78;;;;;;;20.54;100.00;98533.76;1711135;82;28085;-89
2022/08/31 12:06:27;;;;;;;1.32;0.93;;;;;;;20.53;100.00;98536.08;1713354;82;28152;-88